createdAt,value
2023-04-18T00:01:17.115Z,1008.2
2023-04-18T00:03:00.816Z,1008.3
2023-04-18T00:04:44.526Z,1017
2023-04-18T00:06:28.239Z,1027.5
2023-04-18T00:08:11.927Z,1033.6
2023-04-18T00:09:55.626Z,1035.7
2023-04-18T00:11:39.340Z,1034.5
2023-04-18T00:13:23.032Z,1032.5
2023-04-18T00:15:06.729Z,1025.7
2023-04-18T00:16:50.446Z,1024.3
2023-04-18T00:18:34.140Z,1027.8
2023-04-18T00:20:17.835Z,1033.4
2023-04-18T00:22:01.566Z,1036.3
2023-04-18T00:23:45.266Z,1037.8
2023-04-18T00:25:28.962Z,1033.3
2023-04-18T00:27:12.657Z,1035.5
2023-04-18T00:28:56.353Z,1030.1
2023-04-18T00:30:40.058Z,1023
2023-04-18T00:32:23.776Z,1016.7
2023-04-18T00:34:07.450Z,1013.7
2023-04-18T00:35:51.152Z,1020.2
2023-04-18T00:37:34.866Z,1022.9
2023-04-18T00:39:18.578Z,1013.7
2023-04-18T00:41:02.256Z,1013.3
2023-04-18T00:42:45.971Z,1006.8
2023-04-18T00:44:29.679Z,1007.1
2023-04-18T00:46:13.370Z,1004.2
2023-04-18T00:47:57.077Z,1005.7
2023-04-18T00:49:40.788Z,1007.4
2023-04-18T00:51:24.484Z,1006.3
2023-04-18T00:53:08.184Z,1003.1
2023-04-18T00:54:51.885Z,1005
2023-04-18T00:56:35.602Z,1005
2023-04-18T00:58:19.331Z,1000.9
2023-04-18T01:00:02.997Z,999.8
2023-04-18T01:01:46.704Z,999.8
2023-04-18T01:03:30.397Z,1000.5
2023-04-18T01:05:14.095Z,996.4
2023-04-18T01:06:57.805Z,994.1
2023-04-18T01:08:41.516Z,994.6
2023-04-18T01:10:25.221Z,992.4
2023-04-18T01:12:08.918Z,992.6
2023-04-18T01:13:52.617Z,989.5
2023-04-18T01:15:36.315Z,986
2023-04-18T01:17:20.025Z,985.6
2023-04-18T01:19:03.724Z,983.4
2023-04-18T01:20:47.426Z,979
2023-04-18T01:22:31.126Z,977.9
2023-04-18T01:24:14.834Z,978.5
2023-04-18T01:25:58.536Z,991.5
2023-04-18T01:27:42.241Z,1005.4
2023-04-18T01:29:25.938Z,1002.3
2023-04-18T01:31:09.642Z,996
2023-04-18T01:32:53.350Z,995.4
2023-04-18T01:34:37.043Z,994.4
2023-04-18T01:36:20.779Z,991.5
2023-04-18T01:38:04.465Z,988.3
2023-04-18T01:39:48.149Z,984.6
2023-04-18T01:41:31.859Z,986
2023-04-18T01:43:15.594Z,985.4
2023-04-18T01:44:59.266Z,982.1
2023-04-18T01:46:42.968Z,978.7
2023-04-18T01:48:26.672Z,976.2
2023-04-18T01:50:10.364Z,976.1
2023-04-18T01:51:54.073Z,986.4
2023-04-18T01:53:37.767Z,976.6
2023-04-18T01:55:21.489Z,968.2
2023-04-18T01:57:05.181Z,967.4
2023-04-18T01:58:48.870Z,969.3
2023-04-18T02:00:32.584Z,967.5
2023-04-18T02:02:16.291Z,966.6
2023-04-18T02:03:59.983Z,965.6
2023-04-18T02:05:43.698Z,961.2
2023-04-18T02:07:27.391Z,960.8
2023-04-18T02:09:11.098Z,962.9
2023-04-18T02:10:54.806Z,961.5
2023-04-18T02:12:38.491Z,962
2023-04-18T02:14:22.204Z,962.6
2023-04-18T02:16:05.938Z,965.2
2023-04-18T02:17:49.601Z,961.8
2023-04-18T02:19:33.310Z,958.5
2023-04-18T02:21:17.025Z,961.4
2023-04-18T02:23:00.714Z,963.2
2023-04-18T02:24:44.426Z,956.2
2023-04-18T02:26:28.125Z,955.5
2023-04-18T02:28:11.826Z,955.1
2023-04-18T02:29:55.535Z,955.1
2023-04-18T02:31:39.233Z,951.8
2023-04-18T02:33:22.940Z,946.3
2023-04-18T02:35:06.648Z,947.3
2023-04-18T02:36:50.331Z,948.7
2023-04-18T02:38:34.047Z,944.3
2023-04-18T02:40:17.746Z,942
2023-04-18T02:42:01.444Z,942.4
2023-04-18T02:43:45.149Z,943.5
2023-04-18T02:45:28.861Z,940.5
2023-04-18T02:47:12.559Z,938.1
2023-04-18T02:48:56.256Z,934.1
2023-04-18T02:50:39.955Z,927.8
2023-04-18T02:52:23.657Z,924.2
2023-04-18T02:54:07.376Z,924
2023-04-18T02:55:51.063Z,921.6
2023-04-18T02:57:34.774Z,921.7
2023-04-18T02:59:18.468Z,925
2023-04-18T03:01:02.168Z,922.1
2023-04-18T03:02:45.870Z,920.2
2023-04-18T03:04:29.594Z,921.4
2023-04-18T03:06:13.269Z,919.9
2023-04-18T03:07:56.974Z,916.9
2023-04-18T03:09:40.693Z,916.7
2023-04-18T03:11:24.385Z,915.1
2023-04-18T03:13:08.088Z,916.4
2023-04-18T03:14:51.879Z,917.8
2023-04-18T03:16:35.498Z,916.1
2023-04-18T03:18:19.209Z,909.8
2023-04-18T03:20:02.900Z,906.3
2023-04-18T03:21:46.604Z,904.2
2023-04-18T03:23:30.306Z,907.1
2023-04-18T03:25:14.001Z,908.7
2023-04-18T03:26:57.712Z,910.1
2023-04-18T03:28:41.425Z,907.9
2023-04-18T03:30:25.109Z,903.1
2023-04-18T03:32:08.814Z,903.6
2023-04-18T03:33:52.521Z,904.8
2023-04-18T03:35:36.229Z,902.7
2023-04-18T03:37:19.933Z,904.5
2023-04-18T03:39:03.622Z,905.3
2023-04-18T03:40:47.328Z,906.1
2023-04-18T03:42:31.036Z,904.3
2023-04-18T03:44:14.731Z,901.7
2023-04-18T03:45:58.438Z,904.7
2023-04-18T03:47:42.135Z,905.3
2023-04-18T03:49:25.839Z,901.3
2023-04-18T03:51:09.542Z,904
2023-04-18T03:54:37.007Z,898.4
2023-04-18T03:56:20.655Z,897.2
2023-04-18T03:58:04.350Z,895.5
2023-04-18T03:59:48.058Z,896
2023-04-18T04:03:15.452Z,897.1
2023-04-18T04:04:59.161Z,901.6
2023-04-18T04:06:42.898Z,903.7
2023-04-18T04:08:26.564Z,902.9
2023-04-18T04:10:10.271Z,901.3
2023-04-18T04:11:53.980Z,902.9
2023-04-18T04:13:37.679Z,902.5
2023-04-18T04:15:21.386Z,902.7
2023-04-18T04:17:05.072Z,903.2
2023-04-18T04:18:48.781Z,900.5
2023-04-18T04:20:32.488Z,901.5
2023-04-18T04:22:16.180Z,900.8
2023-04-18T04:23:59.881Z,899
2023-04-18T04:25:43.596Z,895.8
2023-04-18T04:27:27.281Z,894.7
2023-04-18T04:29:10.985Z,895
2023-04-18T04:30:54.697Z,890.6
2023-04-18T04:32:38.395Z,888.7
2023-04-18T04:34:22.098Z,890.2
2023-04-18T04:36:05.794Z,892.9
2023-04-18T04:37:49.511Z,892.2
2023-04-18T04:39:33.230Z,888.9
2023-04-18T04:41:16.899Z,885.1
2023-04-18T04:43:00.602Z,884.4
2023-04-18T04:44:44.309Z,883.3
2023-04-18T04:46:28.027Z,886.2
2023-04-18T04:48:11.718Z,884.7
2023-04-18T04:49:55.418Z,886.8
2023-04-18T04:51:39.144Z,888.7
2023-04-18T04:53:22.885Z,885.4
2023-04-18T04:55:06.527Z,887.7
2023-04-18T04:56:50.219Z,890.1
2023-04-18T04:58:33.922Z,890.4
2023-04-18T05:00:17.630Z,888.5
2023-04-18T05:02:01.342Z,888.4
2023-04-18T05:03:45.039Z,885.5
2023-04-18T05:07:12.438Z,881.8
2023-04-18T05:08:56.145Z,881.4
2023-04-18T05:10:39.869Z,884.1
2023-04-18T05:12:23.570Z,882.8
2023-04-18T05:14:07.248Z,882.6
2023-04-18T05:15:50.951Z,882.6
2023-04-18T05:17:34.650Z,880.8
2023-04-18T05:19:18.352Z,880
2023-04-18T05:21:02.054Z,880.4
2023-04-18T05:22:45.758Z,878.7
2023-04-18T05:24:29.462Z,876
2023-04-18T05:26:13.165Z,874.2
2023-04-18T05:27:56.871Z,874.6
2023-04-18T05:29:40.573Z,874.1
2023-04-18T05:31:24.276Z,870.5
2023-04-18T05:33:07.978Z,862.4
2023-04-18T05:34:51.677Z,861.2
2023-04-18T05:36:35.381Z,857.7
2023-04-18T05:38:19.092Z,858.2
2023-04-18T05:40:02.783Z,864.1
2023-04-18T05:41:46.478Z,869.5
2023-04-18T05:43:30.203Z,870
2023-04-18T05:45:13.900Z,870.7
2023-04-18T05:46:57.598Z,879.8
2023-04-18T05:48:41.307Z,878.9
2023-04-18T05:50:25.005Z,879.4
2023-04-18T05:52:08.712Z,877.8
2023-04-18T05:53:52.413Z,878.1
2023-04-18T05:55:36.132Z,882.8
2023-04-18T05:57:19.815Z,883
2023-04-18T05:59:03.560Z,889.2
2023-04-18T06:00:47.289Z,893.8
2023-04-18T06:02:30.931Z,896.8
2023-04-18T06:04:14.641Z,1013.7
2023-04-18T06:05:58.331Z,1103.6
2023-04-18T06:07:42.042Z,1020.8
2023-04-18T06:09:25.828Z,960.7
2023-04-18T06:11:09.442Z,954.6
2023-04-18T06:12:53.163Z,957.7
2023-04-18T06:14:36.839Z,959
2023-04-18T06:16:20.545Z,959.4
2023-04-18T06:18:04.251Z,963.9
2023-04-18T06:19:47.955Z,959.1
2023-04-18T06:21:31.660Z,959.2
2023-04-18T06:23:15.362Z,960.7
2023-04-18T06:24:59.063Z,961.6
2023-04-18T06:26:42.767Z,960.5
2023-04-18T06:28:26.583Z,961.8
2023-04-18T06:30:10.224Z,961.6
2023-04-18T06:31:54.048Z,963
2023-04-18T06:33:37.675Z,1066.6
2023-04-18T06:35:21.303Z,1102.5
2023-04-18T06:37:05.015Z,1095
2023-04-18T06:38:48.677Z,1083.3
2023-04-18T06:40:32.466Z,1057.7
2023-04-18T06:42:16.084Z,1007.3
2023-04-18T06:43:59.799Z,1009.1
2023-04-18T06:45:43.500Z,1013.3
2023-04-18T06:47:27.199Z,1015.2
2023-04-18T06:49:10.938Z,1016
2023-04-18T06:50:54.756Z,1017.2
2023-04-18T06:52:38.395Z,1015.1
2023-04-18T06:54:22.010Z,1016.3
2023-04-18T06:56:05.718Z,1022.2
2023-04-18T06:57:49.504Z,1019
2023-04-18T06:59:33.153Z,1020.9
2023-04-18T07:01:16.826Z,1016.5
2023-04-18T07:03:00.513Z,1015
2023-04-18T07:04:44.307Z,1024.5
2023-04-18T07:06:27.941Z,1351
2023-04-18T07:08:11.724Z,1334.7
2023-04-18T07:09:55.377Z,1122.5
2023-04-18T07:11:39.037Z,1085.9
2023-04-18T07:13:22.738Z,1118.8
2023-04-18T07:15:06.460Z,1138.8
2023-04-18T07:16:50.232Z,1142
2023-04-18T07:18:33.838Z,1144.3
2023-04-18T07:20:17.725Z,1156.2
2023-04-18T07:22:01.374Z,1166.6
2023-04-18T07:23:45.137Z,1173.6
2023-04-18T07:25:28.637Z,1179.7
2023-04-18T07:27:12.341Z,1175.9
2023-04-18T07:28:56.064Z,1174.3
2023-04-18T07:30:39.828Z,1175.4
2023-04-18T07:32:23.583Z,1185.1
2023-04-18T07:34:07.150Z,1195.9
2023-04-18T07:35:50.864Z,1188.6
2023-04-18T07:37:34.682Z,1191.4
2023-04-18T07:39:18.309Z,1188.7
2023-04-18T07:41:01.983Z,1188.3
2023-04-18T07:42:45.776Z,1196.7
2023-04-18T07:44:29.454Z,1191.7
2023-04-18T07:46:13.147Z,1186
2023-04-18T07:47:56.864Z,1183.2
2023-04-18T07:49:40.486Z,1185.6
2023-04-18T07:51:24.305Z,1186.4
2023-04-18T07:53:07.972Z,1205.1
2023-04-18T07:54:51.731Z,1236.7
2023-04-18T07:56:35.388Z,1248.1
2023-04-18T07:58:19.003Z,1239.7
2023-04-18T08:00:02.742Z,1219.2
2023-04-18T08:01:46.413Z,1199.9
2023-04-18T08:03:30.268Z,1195
2023-04-18T08:05:13.803Z,1196.2
2023-04-18T08:06:57.516Z,1194.8
2023-04-18T08:08:41.252Z,1191.7
2023-04-18T08:10:25.023Z,1193.5
2023-04-18T08:12:08.718Z,1195.2
2023-04-18T08:13:52.325Z,1190.8
2023-04-18T08:15:36.027Z,1187.9
2023-04-18T08:17:19.745Z,1190.8
2023-04-18T08:19:03.433Z,1195.1
2023-04-18T08:20:47.145Z,1195.4
2023-04-18T08:22:30.844Z,1197.6
2023-04-18T08:24:14.540Z,1203.2
2023-04-18T08:25:58.243Z,1203.7
2023-04-18T08:27:41.942Z,1202.1
2023-04-18T08:29:25.707Z,1199.1
2023-04-18T08:31:09.471Z,1179.4
2023-04-18T08:32:53.187Z,1167.6
2023-04-18T08:34:36.773Z,1157
2023-04-18T08:36:20.468Z,1154.1
2023-04-18T08:38:04.157Z,1145.2
2023-04-18T08:39:47.883Z,1141.4
2023-04-18T08:41:31.571Z,1140.1
2023-04-18T08:43:15.272Z,1141.1
2023-04-18T08:44:58.983Z,1152
2023-04-18T08:46:42.695Z,1165.7
2023-04-18T08:48:26.381Z,1169.8
2023-04-18T08:50:10.091Z,1168.3
2023-04-18T08:51:53.781Z,1173.7
2023-04-18T08:53:37.484Z,1168.2
2023-04-18T08:55:21.188Z,1167.3
2023-04-18T08:57:04.895Z,1165.6
2023-04-18T08:58:48.679Z,1264.3
2023-04-18T09:00:32.301Z,1305.2
2023-04-18T09:02:15.993Z,1301
2023-04-18T09:03:59.713Z,1297.7
2023-04-18T09:05:43.408Z,1296.7
2023-04-18T09:07:27.106Z,1284.4
2023-04-18T09:09:10.811Z,1253.5
2023-04-18T09:10:54.511Z,1239.6
2023-04-18T09:12:38.213Z,1239.5
2023-04-18T09:14:21.927Z,1241.3
2023-04-18T09:16:05.612Z,1238.6
2023-04-18T09:17:49.335Z,1233.1
2023-04-18T09:19:33.028Z,1232.9
2023-04-18T09:21:16.725Z,1241.3
2023-04-18T09:23:00.428Z,1247.2
2023-04-18T09:24:44.138Z,1252.5
2023-04-18T09:26:27.838Z,1249.8
2023-04-18T09:28:11.533Z,1243.9
2023-04-18T09:29:55.324Z,1243.7
2023-04-18T09:31:39.097Z,1239.8
2023-04-18T09:33:22.774Z,1231.6
2023-04-18T09:35:06.349Z,1222.8
2023-04-18T09:36:50.113Z,1219.9
2023-04-18T09:38:33.751Z,1222.1
2023-04-18T09:40:17.454Z,1220.6
2023-04-18T09:42:01.161Z,1218.1
2023-04-18T09:43:44.874Z,1213.9
2023-04-18T09:45:28.560Z,1208.7
2023-04-18T09:47:12.267Z,1206.1
2023-04-18T09:48:55.978Z,1203.7
2023-04-18T09:50:39.669Z,1200.5
2023-04-18T09:52:23.375Z,1197.4
2023-04-18T09:54:07.139Z,1196.3
2023-04-18T09:55:50.792Z,1198.5
2023-04-18T09:57:34.517Z,1196.5
2023-04-18T09:59:18.179Z,1192.4
2023-04-18T10:01:01.884Z,1185
2023-04-18T10:02:45.598Z,1182.6
2023-04-18T10:04:29.279Z,1177.7
2023-04-18T10:06:12.985Z,1179.3
2023-04-18T10:07:56.698Z,1181.1
2023-04-18T10:09:40.392Z,1174
2023-04-18T10:11:24.119Z,1167
2023-04-18T10:13:07.803Z,1167.9
2023-04-18T10:14:51.504Z,1170.6
2023-04-18T10:16:35.362Z,1173.7
2023-04-18T10:18:18.907Z,1171.8
2023-04-18T10:20:02.625Z,1172.5
2023-04-18T10:21:46.317Z,1173.8
2023-04-18T10:23:30.024Z,1380.4
2023-04-18T10:25:13.753Z,1510.4
2023-04-18T10:26:57.423Z,1488.9
2023-04-18T10:28:41.121Z,1480.2
2023-04-18T10:30:24.834Z,1470.4
2023-04-18T10:32:08.527Z,1467.7
2023-04-18T10:33:52.244Z,1435.8
2023-04-18T10:35:35.949Z,1376.7
2023-04-18T10:37:19.645Z,1374.8
2023-04-18T10:39:03.348Z,1368.2
2023-04-18T10:40:47.056Z,1371.3
2023-04-18T10:42:30.859Z,1378.3
2023-04-18T10:44:14.641Z,1382.7
2023-04-18T10:45:58.184Z,1384.7
2023-04-18T10:47:41.865Z,1389.4
2023-04-18T10:49:25.601Z,1384.8
2023-04-18T10:51:09.321Z,1382.9
2023-04-18T10:52:53.002Z,1377.9
2023-04-18T10:54:36.765Z,1372.5
2023-04-18T10:56:20.524Z,1364.2
2023-04-18T10:58:04.075Z,1356.5
2023-04-18T10:59:47.822Z,1355.6
2023-04-18T11:01:31.473Z,1361
2023-04-18T11:04:58.896Z,1356.3
2023-04-18T11:06:42.588Z,1350.4
2023-04-18T11:08:26.293Z,1344.1
2023-04-18T11:10:09.997Z,1339.6
2023-04-18T11:11:53.692Z,1335.7
2023-04-18T11:13:37.481Z,1325.9
2023-04-18T11:15:21.235Z,1315.3
2023-04-18T11:17:04.908Z,1312.1
2023-04-18T11:18:48.518Z,1307.8
2023-04-18T11:20:32.206Z,1303.3
2023-04-18T11:22:15.916Z,1302.1
2023-04-18T11:23:59.608Z,1291.6
2023-04-18T11:25:43.312Z,1287.7
2023-04-18T11:27:27.216Z,1284.7
2023-04-18T11:29:10.869Z,1279.9
2023-04-18T11:30:54.570Z,1277.6
2023-04-18T11:32:38.127Z,1277.3
2023-04-18T11:34:21.834Z,1277.2
2023-04-18T11:36:05.535Z,1275.3
2023-04-18T11:37:49.258Z,1270.5
2023-04-18T11:39:32.940Z,1267.5
2023-04-18T11:41:16.791Z,1262.4
2023-04-18T11:43:00.560Z,1261.1
2023-04-18T11:44:44.042Z,1257.1
2023-04-18T11:46:27.745Z,1254.3
2023-04-18T11:48:11.466Z,1252.7
2023-04-18T11:49:55.158Z,1253.1
2023-04-18T11:51:38.847Z,1252.9
2023-04-18T11:53:22.558Z,1250.3
2023-04-18T11:55:06.270Z,1247.5
2023-04-18T11:56:49.975Z,1247.2
2023-04-18T11:58:33.668Z,1247.9
2023-04-18T12:00:17.367Z,1247.8
2023-04-18T12:02:01.061Z,1243.8
2023-04-18T12:03:44.763Z,1237.3
2023-04-18T12:05:28.487Z,1227.7
2023-04-18T12:07:12.179Z,1224.2
2023-04-18T12:08:55.882Z,1309.4
2023-04-18T12:10:39.579Z,1391.8
2023-04-18T12:12:23.287Z,1359.2
2023-04-18T12:14:06.978Z,1328.6
2023-04-18T12:15:50.699Z,1372
2023-04-18T12:17:34.390Z,1361.4
2023-04-18T12:19:18.097Z,1349.1
2023-04-18T12:21:01.798Z,1289.1
2023-04-18T12:22:45.504Z,1277.9
2023-04-18T12:24:29.201Z,1290.9
2023-04-18T12:26:12.910Z,1311.3
2023-04-18T12:27:56.604Z,1308.3
2023-04-18T12:29:40.308Z,1304.4
2023-04-18T12:31:24.008Z,1304
2023-04-18T12:33:07.705Z,1296
2023-04-18T12:34:51.417Z,1289.2
2023-04-18T12:36:35.111Z,1279.2
2023-04-18T12:38:18.808Z,1278.8
2023-04-18T12:40:02.525Z,1411.5
2023-04-18T12:41:46.216Z,1415.8
2023-04-18T12:43:29.943Z,1333.9
2023-04-18T12:45:13.609Z,1314.7
2023-04-18T12:46:57.317Z,1318.5
2023-04-18T12:48:41.032Z,1325.4
2023-04-18T12:50:24.733Z,1338.4
2023-04-18T12:52:08.426Z,1337.7
2023-04-18T12:53:52.126Z,1339.8
2023-04-18T12:55:35.823Z,1330.4
2023-04-18T12:57:19.530Z,1281.3
2023-04-18T12:59:03.232Z,1293.7
2023-04-18T13:00:46.931Z,1289.3
2023-04-18T13:02:30.635Z,1279.6
2023-04-18T13:04:14.347Z,1272
2023-04-18T13:05:58.045Z,1274.6
2023-04-18T13:07:41.746Z,1275.3
2023-04-18T13:09:25.460Z,1271
2023-04-18T13:11:09.155Z,1273.4
2023-04-18T13:12:52.860Z,1273.6
2023-04-18T13:14:36.561Z,1272.5
2023-04-18T13:16:20.271Z,1267.8
2023-04-18T13:18:03.968Z,1260.7
2023-04-18T13:19:47.666Z,1252.6
2023-04-18T13:21:31.367Z,1248.5
2023-04-18T13:23:15.078Z,1246.6
2023-04-18T13:24:58.774Z,1242.2
2023-04-18T13:26:42.483Z,1237
2023-04-18T13:28:26.182Z,1236.3
2023-04-18T13:30:09.875Z,1232.8
2023-04-18T13:31:53.587Z,1227.8
2023-04-18T13:33:37.305Z,1225
2023-04-18T13:35:20.993Z,1225.5
2023-04-18T13:37:04.705Z,1222.2
2023-04-18T13:38:48.396Z,1216.9
2023-04-18T13:40:32.095Z,1216.3
2023-04-18T13:42:15.807Z,1227.9
2023-04-18T13:43:59.508Z,1273.6
2023-04-18T13:45:43.207Z,1285.5
2023-04-18T13:47:26.901Z,1278.3
2023-04-18T13:49:10.596Z,1263.7
2023-04-18T13:50:54.320Z,1246.8
2023-04-18T13:52:38.011Z,1237.1
2023-04-18T13:54:21.719Z,1231.9
2023-04-18T13:56:05.426Z,1229.5
2023-04-18T13:57:49.119Z,1225
2023-04-18T13:59:32.825Z,1219.2
2023-04-18T14:01:16.540Z,1219.1
2023-04-18T14:03:00.224Z,1212.7
2023-04-18T14:04:43.934Z,1206.9
2023-04-18T14:06:27.640Z,1202.4
2023-04-18T14:08:11.384Z,1196.4
2023-04-18T14:09:55.040Z,1188.9
2023-04-18T14:11:38.743Z,1185.9
2023-04-18T14:13:22.451Z,1181.9
2023-04-18T14:15:06.152Z,1182.2
2023-04-18T14:16:49.844Z,1286.1
2023-04-18T14:18:33.542Z,1234.4
2023-04-18T14:20:17.255Z,1199.3
2023-04-18T14:22:00.975Z,1193.2
2023-04-18T14:23:44.664Z,1186.2
2023-04-18T14:25:28.364Z,1183
2023-04-18T14:27:12.057Z,1181.5
2023-04-18T14:28:55.764Z,1186.2
2023-04-18T14:30:39.466Z,1205.6
2023-04-18T14:32:23.184Z,1201.3
2023-04-18T14:34:07.169Z,1201.8
2023-04-18T14:35:50.753Z,1199.5
2023-04-18T14:37:34.363Z,1199.1
2023-04-18T14:39:18.058Z,1197.5
2023-04-18T14:41:01.697Z,1184.4
2023-04-18T14:42:45.436Z,1168.7
2023-04-18T14:44:29.255Z,1172.6
2023-04-18T14:46:12.806Z,1164.2
2023-04-18T14:47:56.526Z,1152.2
2023-04-18T14:49:40.448Z,1141.2
2023-04-18T14:51:23.910Z,1130.9
2023-04-18T14:53:07.742Z,1135
2023-04-18T14:54:51.438Z,1142.6
2023-04-18T14:56:35.103Z,1145.8
2023-04-18T14:58:18.777Z,1147
2023-04-18T15:00:02.444Z,1143.7
2023-04-18T15:01:46.120Z,1139.5
2023-04-18T15:05:13.525Z,1135.7
2023-04-18T15:06:57.231Z,1151.4
2023-04-18T15:08:40.930Z,1158.9
2023-04-18T15:10:24.648Z,1155.6
2023-04-18T15:12:08.338Z,1155.4
2023-04-18T15:15:35.739Z,1151.5
2023-04-18T15:17:19.467Z,1147.3
2023-04-18T15:19:03.144Z,1147
2023-04-18T15:20:46.865Z,1148.7
2023-04-18T15:22:30.561Z,1146.4
2023-04-18T15:24:14.258Z,1148.5
2023-04-18T15:25:57.974Z,1145.2
2023-04-18T15:27:41.671Z,1133.6
2023-04-18T15:29:25.386Z,1129
2023-04-18T15:31:09.071Z,1129.1
2023-04-18T15:32:52.771Z,1126.3
2023-04-18T15:34:36.531Z,1129.6
2023-04-18T15:36:20.212Z,1124.4
2023-04-18T15:38:03.871Z,1127.9
2023-04-18T15:39:47.590Z,1130.7
2023-04-18T15:41:31.303Z,1128.1
2023-04-18T15:43:14.985Z,1124.8
2023-04-18T15:44:58.702Z,1130.7
2023-04-18T15:46:42.438Z,1129
2023-04-18T15:48:26.089Z,1124.2
2023-04-18T15:50:09.793Z,1118.6
2023-04-18T15:51:53.500Z,1116.4
2023-04-18T15:53:37.244Z,1108.1
2023-04-18T15:55:20.913Z,1085.7
2023-04-18T15:57:04.595Z,1092.1
2023-04-18T15:58:48.302Z,1109.4
2023-04-18T16:00:32.034Z,1135.7
2023-04-18T16:02:15.709Z,1133.2
2023-04-18T16:03:59.407Z,1118.5
2023-04-18T16:05:43.146Z,1114.5
2023-04-18T16:07:26.803Z,1114.2
2023-04-18T16:09:10.506Z,1112.5
2023-04-18T16:10:54.213Z,1111.7
2023-04-18T16:12:37.914Z,1125.5
2023-04-18T16:14:21.630Z,1145.8
2023-04-18T16:16:05.317Z,1148.9
2023-04-18T16:17:49.019Z,1152.2
2023-04-18T16:19:32.725Z,1146.4
2023-04-18T16:21:16.430Z,1138.6
2023-04-18T16:23:00.131Z,1132.8
2023-04-18T16:24:43.838Z,1130.3
2023-04-18T16:26:27.540Z,1126
2023-04-18T16:28:11.235Z,1125.4
2023-04-18T16:29:54.940Z,1121.4
2023-04-18T16:31:38.643Z,1115.2
2023-04-18T16:33:22.403Z,1116.3
2023-04-18T16:35:06.073Z,1118.9
2023-04-18T16:36:49.765Z,1121.2
2023-04-18T16:38:33.472Z,1123.8
2023-04-18T16:40:17.280Z,1121.8
2023-04-18T16:42:00.864Z,1122.6
2023-04-18T16:43:44.573Z,1113.9
2023-04-18T16:45:28.267Z,1110.2
2023-04-18T16:47:11.975Z,1109.1
2023-04-18T16:48:55.675Z,1109.1
2023-04-18T16:50:39.420Z,1123
2023-04-18T16:52:23.086Z,1156.6
2023-04-18T16:54:06.791Z,1126.4
2023-04-18T16:55:50.494Z,1112.2
2023-04-18T16:57:34.209Z,1111
2023-04-18T16:59:17.891Z,1111.8
2023-04-18T17:01:01.595Z,1105.1
2023-04-18T17:02:45.299Z,1101.9
2023-04-18T17:04:29.168Z,1100.2
2023-04-18T17:06:12.826Z,1105
2023-04-18T17:07:56.448Z,1107.8
2023-04-18T17:09:40.175Z,1108.6
2023-04-18T17:11:23.891Z,1149.4
2023-04-18T17:13:07.516Z,1183.3
2023-04-18T17:14:51.347Z,1173.7
2023-04-18T17:16:34.932Z,1169.1
2023-04-18T17:18:18.702Z,1172.1
2023-04-18T17:20:02.367Z,1179.1
2023-04-18T17:21:46.038Z,1180.2
2023-04-18T17:23:29.737Z,1176.6
2023-04-18T17:25:13.440Z,1191
2023-04-18T17:26:57.142Z,1209.6
2023-04-18T17:28:40.867Z,1208.9
2023-04-18T17:30:24.617Z,1205
2023-04-18T17:32:08.245Z,1194.9
2023-04-18T17:33:52.029Z,1165.7
2023-04-18T17:35:35.666Z,1154.9
2023-04-18T17:37:19.351Z,1146.9
2023-04-18T17:39:03.048Z,1141.5
2023-04-18T17:40:46.868Z,1132.8
2023-04-18T17:42:30.496Z,1125.8
2023-04-18T17:44:14.181Z,1122.9
2023-04-18T17:45:57.881Z,1120.7
2023-04-18T17:47:41.581Z,1118.5
2023-04-18T17:49:25.300Z,1119.4
2023-04-18T17:51:08.982Z,1115.5
2023-04-18T17:52:52.684Z,1110.1
2023-04-18T17:54:36.389Z,1109
2023-04-18T17:56:20.090Z,1111.8
2023-04-18T17:58:03.814Z,1112.2
2023-04-18T17:59:47.547Z,1112.3
2023-04-18T18:01:31.204Z,1113.5
2023-04-18T18:03:14.899Z,1115.5
2023-04-18T18:04:58.605Z,1117.4
2023-04-18T18:06:42.319Z,1114.5
2023-04-18T18:08:26.024Z,1116.9
2023-04-18T18:10:09.702Z,1119.2
2023-04-18T18:11:53.410Z,1130.1
2023-04-18T18:13:37.113Z,1137.6
2023-04-18T18:15:20.814Z,1139.7
2023-04-18T18:17:04.538Z,1140.1
2023-04-18T18:18:48.220Z,1143.2
2023-04-18T18:20:31.931Z,1145
2023-04-18T18:22:15.647Z,1144.2
2023-04-18T18:23:59.329Z,1143.3
2023-04-18T18:25:43.053Z,1129.4
2023-04-18T18:27:26.732Z,761.7
2023-04-18T18:29:10.478Z,657.1
2023-04-18T18:30:54.136Z,634
2023-04-18T18:32:37.864Z,927.4
2023-04-18T18:34:21.529Z,942.3
2023-04-18T18:36:05.242Z,882.1
2023-04-18T18:37:48.942Z,890.4
2023-04-18T18:39:32.658Z,895.3
2023-04-18T18:41:16.367Z,894.9
2023-04-18T18:43:00.067Z,888.9
2023-04-18T18:44:43.782Z,881.2
2023-04-18T18:46:27.458Z,872.9
2023-04-18T18:48:11.164Z,862.2
2023-04-18T18:49:54.874Z,858.5
2023-04-18T18:51:38.577Z,855.4
2023-04-18T18:53:22.260Z,855.5
2023-04-18T18:55:06.003Z,860.6
2023-04-18T18:56:49.668Z,860.3
2023-04-18T18:58:33.373Z,707.5
2023-04-18T19:00:17.096Z,534.1
2023-04-18T19:02:00.774Z,512.5
2023-04-18T19:03:44.473Z,527
2023-04-18T19:05:28.212Z,800.8
2023-04-18T19:07:11.922Z,798.4
2023-04-18T19:08:55.587Z,792.7
2023-04-18T19:10:39.309Z,783.5
2023-04-18T19:12:22.989Z,757.3
2023-04-18T19:14:06.696Z,737.6
2023-04-18T19:15:50.403Z,735.1
2023-04-18T19:17:34.103Z,736.2
2023-04-18T19:19:17.803Z,738.3
2023-04-18T19:21:01.505Z,751.1
2023-04-18T19:22:45.217Z,757.4
2023-04-18T19:24:28.945Z,762.9
2023-04-18T19:26:12.618Z,765.4
2023-04-18T19:27:56.315Z,767.3
2023-04-18T19:29:40.085Z,768.6
2023-04-18T19:31:23.721Z,772.7
2023-04-18T19:33:07.427Z,782.3
2023-04-18T19:34:51.148Z,785.8
2023-04-18T19:36:34.827Z,786.9
2023-04-18T19:38:18.528Z,789.5
2023-04-18T19:40:02.235Z,795
2023-04-18T19:41:45.954Z,799.2
2023-04-18T19:43:29.639Z,800.6
2023-04-18T19:45:13.408Z,802.1
2023-04-18T19:46:57.045Z,804.5
2023-04-18T19:48:40.926Z,813
2023-04-18T19:50:24.452Z,818.7
2023-04-18T19:52:08.156Z,826
2023-04-18T19:53:51.857Z,828.7
2023-04-18T19:55:35.619Z,829.2
2023-04-18T19:57:19.270Z,830.2
2023-04-18T19:59:02.976Z,833.3
2023-04-18T20:00:46.651Z,834
2023-04-18T20:02:30.534Z,833.1
2023-04-18T20:04:14.065Z,833.8
2023-04-18T20:05:57.768Z,833.6
2023-04-18T20:07:41.469Z,830.9
2023-04-18T20:09:25.170Z,829.7
2023-04-18T20:11:08.876Z,834.5
2023-04-18T20:12:52.601Z,835.6
2023-04-18T20:14:36.343Z,836.5
2023-04-18T20:16:20.085Z,835.7
2023-04-18T20:18:03.684Z,846.7
2023-04-18T20:19:47.385Z,860.4
2023-04-18T20:21:31.078Z,862.6
2023-04-18T20:23:14.799Z,860.7
2023-04-18T20:24:58.497Z,858
2023-04-18T20:26:42.194Z,874.8
2023-04-18T20:28:25.957Z,916.2
2023-04-18T20:31:53.311Z,906.3
2023-04-18T20:33:37.023Z,904.7
2023-04-18T20:35:20.704Z,905.6
2023-04-18T20:37:04.441Z,903.3
2023-04-18T20:38:48.130Z,902.9
2023-04-18T20:40:31.812Z,897.2
2023-04-18T20:42:15.601Z,877.6
2023-04-18T20:43:59.232Z,880
2023-04-18T20:45:42.973Z,881.5
2023-04-18T20:47:26.626Z,881.9
2023-04-18T20:49:10.315Z,885
2023-04-18T20:50:54.067Z,883.6
2023-04-18T20:52:37.736Z,884.8
2023-04-18T20:54:21.475Z,883.4
2023-04-18T20:56:05.140Z,885
2023-04-18T20:57:48.857Z,884.7
2023-04-18T20:59:32.541Z,887.8
2023-04-18T21:01:16.246Z,889.4
2023-04-18T21:02:59.951Z,890.1
2023-04-18T21:04:43.744Z,894.8
2023-04-18T21:06:27.342Z,897.2
2023-04-18T21:08:11.057Z,896.5
2023-04-18T21:09:54.745Z,895.3
2023-04-18T21:11:38.451Z,893
2023-04-18T21:13:22.147Z,892.2
2023-04-18T21:15:05.935Z,893.4
2023-04-18T21:16:49.601Z,891.8
2023-04-18T21:18:33.259Z,893.4
2023-04-18T21:20:17.016Z,894.1
2023-04-18T21:22:00.658Z,894.6
2023-04-18T21:23:44.362Z,892.9
2023-04-18T21:25:28.069Z,887.5
2023-04-18T21:27:11.773Z,885.3
2023-04-18T21:28:55.474Z,885.2
2023-04-18T21:30:39.224Z,890.2
2023-04-18T21:32:22.875Z,923.2
2023-04-18T21:34:06.593Z,967.2
2023-04-18T21:35:50.282Z,969.8
2023-04-18T21:37:34.006Z,969.6
2023-04-18T21:39:17.793Z,970.3
2023-04-18T21:41:01.382Z,966.5
2023-04-18T21:42:45.091Z,957.8
2023-04-18T21:44:28.795Z,951.6
2023-04-18T21:46:12.547Z,949
2023-04-18T21:47:56.267Z,944.9
2023-04-18T21:49:39.956Z,942
2023-04-18T21:51:23.596Z,941.1
2023-04-18T21:53:07.327Z,944.1
2023-04-18T21:54:51.022Z,945.1
2023-04-18T21:56:34.727Z,942.1
2023-04-18T21:58:18.416Z,941.1
2023-04-18T22:00:02.131Z,936.4
2023-04-18T22:01:45.871Z,935.5
2023-04-18T22:03:29.521Z,938.6
2023-04-18T22:05:13.258Z,941.4
2023-04-18T22:06:56.936Z,943.6
2023-04-18T22:08:40.641Z,950.4
2023-04-18T22:10:24.330Z,951.4